Archival Weather

Half Moon Bay

Half Moon Bay, California (KHAF)

Report from: Wednesday, December 6, 2023 1:55 PM PST
Current time: Saturday, February 24, 2024 8:39 AM PST

Current weather – Weather history – Daily summaries
Weather forecast

Present weatherMist
Temperature14.0°C (57.2°F)
Dew point14.0°C (57.2°F)
Winds 11 kts (5.7 m/s, 12.7 mph) South (190°)
Wind gusts 18 kts (9.3 m/s, 20.7 mph)
Visibility3 mi. (4.8 km)
Clouds Few clouds 1,800 ft. (549 m)
Scattered clouds 3,600 ft. (1,097 m)
Ceiling: Broken clouds 4,500 ft. (1,372 m)
Altimeter30.01 in.Hg (1016 mB)
Precipitiation0.05 in. (1 mm)
Relative humidity100 %
Density altitude1 ft. (0 m)
Remarks Fully automated report
Automated weather observing station with precipitation discriminator
Flight conditions Marginal Visual Meteorological Conditions
Raw dataKHAF 062155Z AUTO 19011G18KT 3SM BR FEW018 SCT036 BKN045 14/14 A3001 RMK AO2 P0005
An error has occurred. This application may no longer respond until reloaded. Reload 🗙